createdAt,value
2022-08-17T00:00:14.701Z,99.90
2022-08-17T00:03:10.445Z,99.90
2022-08-17T00:06:00.118Z,99.90
2022-08-17T00:08:35.770Z,99.90
2022-08-17T00:11:08.037Z,99.90
2022-08-17T00:13:39.038Z,99.90
2022-08-17T00:16:18.572Z,99.90
2022-08-17T00:19:00.382Z,99.90
2022-08-17T00:22:30.130Z,99.90
2022-08-17T00:24:24.427Z,99.90
2022-08-17T00:26:52.630Z,99.90
2022-08-17T00:29:20.463Z,99.90
2022-08-17T00:31:48.725Z,99.90
2022-08-17T00:34:16.544Z,99.90
2022-08-17T00:36:43.971Z,99.90
2022-08-17T00:39:11.332Z,99.90
2022-08-17T00:41:40.134Z,99.90
2022-08-17T00:44:12.415Z,99.90
2022-08-17T00:46:43.790Z,99.90
2022-08-17T00:49:12.790Z,99.90
2022-08-17T00:51:40.155Z,99.90
2022-08-17T00:54:13.365Z,99.90
2022-08-17T00:56:46.303Z,99.90
2022-08-17T00:59:19.933Z,99.90
2022-08-17T01:01:49.566Z,99.90
2022-08-17T01:04:19.186Z,99.90
2022-08-17T01:06:49.735Z,99.90
2022-08-17T01:09:19.521Z,99.90
2022-08-17T01:11:52.307Z,99.90
2022-08-17T01:14:25.007Z,99.90
2022-08-17T01:16:55.163Z,99.90
2022-08-17T01:19:26.320Z,99.90
2022-08-17T01:22:08.637Z,99.90
2022-08-17T01:24:37.814Z,99.90
2022-08-17T01:27:08.050Z,99.90
2022-08-17T01:29:41.241Z,99.90
2022-08-17T01:32:09.292Z,99.90
2022-08-17T01:34:43.365Z,99.90
2022-08-17T01:37:13.671Z,99.90
2022-08-17T01:39:51.626Z,99.90
2022-08-17T01:42:26.477Z,99.90
2022-08-17T01:44:57.902Z,99.90
2022-08-17T01:47:25.354Z,99.90
2022-08-17T01:49:52.839Z,99.90
2022-08-17T01:52:22.129Z,99.90
2022-08-17T01:54:51.269Z,99.90
2022-08-17T01:57:18.846Z,99.90
2022-08-17T01:59:46.256Z,99.90
2022-08-17T02:02:30.425Z,99.90
2022-08-17T02:05:01.416Z,99.90
2022-08-17T02:07:29.263Z,99.90
2022-08-17T02:09:57.021Z,99.90
2022-08-17T02:12:37.668Z,99.90
2022-08-17T02:15:08.174Z,99.90
2022-08-17T02:17:35.949Z,99.90
2022-08-17T02:20:04.798Z,99.90
2022-08-17T02:22:32.311Z,99.90
2022-08-17T02:25:02.373Z,99.90
2022-08-17T02:27:30.900Z,99.90
2022-08-17T02:29:58.451Z,99.90
2022-08-17T02:32:27.970Z,99.90
2022-08-17T02:34:57.520Z,99.90
2022-08-17T02:37:26.246Z,99.90
2022-08-17T02:39:53.624Z,99.90
2022-08-17T02:42:27.920Z,99.90
2022-08-17T02:44:55.309Z,99.90
2022-08-17T02:47:22.545Z,99.90
2022-08-17T02:49:54.253Z,99.90
2022-08-17T02:52:43.252Z,99.90
2022-08-17T02:55:24.613Z,99.90
2022-08-17T02:57:52.707Z,99.90
2022-08-17T03:00:34.163Z,99.90
2022-08-17T03:03:03.581Z,99.90
2022-08-17T03:05:33.131Z,99.90
2022-08-17T03:08:01.259Z,99.90
2022-08-17T03:10:29.820Z,99.90
2022-08-17T03:12:57.595Z,99.90
2022-08-17T03:15:28.773Z,99.90
2022-08-17T03:17:56.884Z,99.90
2022-08-17T03:20:25.952Z,99.90
2022-08-17T03:23:01.769Z,99.90
2022-08-17T03:25:34.548Z,99.90
2022-08-17T03:28:01.942Z,99.90
2022-08-17T03:30:29.939Z,99.90
2022-08-17T03:33:00.246Z,99.90
2022-08-17T03:35:31.546Z,99.90
2022-08-17T03:38:02.555Z,99.90
2022-08-17T03:40:34.529Z,99.90
2022-08-17T03:43:20.848Z,99.90
2022-08-17T03:46:20.728Z,99.90
2022-08-17T03:49:13.400Z,99.90
2022-08-17T03:51:59.134Z,99.90
2022-08-17T03:54:45.049Z,99.90
2022-08-17T03:57:13.779Z,99.90
2022-08-17T03:59:41.246Z,99.90
2022-08-17T04:02:13.211Z,99.90
2022-08-17T04:04:40.373Z,99.90
2022-08-17T04:07:08.570Z,99.90
2022-08-17T04:09:36.705Z,99.90
2022-08-17T04:12:05.283Z,99.90
2022-08-17T04:14:39.342Z,99.90
2022-08-17T04:17:26.401Z,99.90
2022-08-17T04:19:54.963Z,99.90
2022-08-17T04:22:30.689Z,99.90
2022-08-17T04:25:22.267Z,99.90
2022-08-17T04:27:49.671Z,99.90
2022-08-17T04:30:17.226Z,99.90
2022-08-17T04:33:04.895Z,99.90
2022-08-17T04:35:47.721Z,99.90
2022-08-17T04:38:21.287Z,99.90
2022-08-17T04:41:07.588Z,99.90
2022-08-17T04:43:36.786Z,99.90
2022-08-17T04:46:10.267Z,99.90
2022-08-17T04:48:40.833Z,99.90
2022-08-17T04:51:11.415Z,99.90
2022-08-17T04:53:40.445Z,99.90
2022-08-17T04:56:11.688Z,99.90
2022-08-17T04:58:45.942Z,99.90
2022-08-17T05:01:13.769Z,99.90
2022-08-17T05:03:42.028Z,99.90
2022-08-17T05:06:09.501Z,99.90
2022-08-17T05:08:38.957Z,99.90
2022-08-17T05:11:06.532Z,99.90
2022-08-17T05:13:34.316Z,99.90
2022-08-17T05:16:03.476Z,99.90
2022-08-17T05:18:31.641Z,99.90
2022-08-17T05:20:59.188Z,99.90
2022-08-17T05:23:34.994Z,99.90
2022-08-17T05:26:25.681Z,99.90
2022-08-17T05:28:57.001Z,99.90
2022-08-17T05:31:25.871Z,99.90
2022-08-17T05:33:53.502Z,99.90
2022-08-17T05:36:42.331Z,99.90
2022-08-17T05:39:08.387Z,99.90
2022-08-17T05:41:43.154Z,99.90
2022-08-17T05:44:10.476Z,99.90
2022-08-17T05:46:43.620Z,99.90
2022-08-17T05:49:13.352Z,99.90
2022-08-17T05:52:00.147Z,99.90
2022-08-17T05:54:36.062Z,99.90
2022-08-17T05:57:28.438Z,99.90
2022-08-17T06:00:01.429Z,99.90
2022-08-17T06:03:07.380Z,99.90
2022-08-17T06:05:43.860Z,99.90
2022-08-17T06:08:27.057Z,99.90
2022-08-17T06:11:03.121Z,99.90
2022-08-17T06:14:14.911Z,99.90
2022-08-17T06:16:48.674Z,99.90
2022-08-17T06:19:36.350Z,99.90
2022-08-17T06:22:06.270Z,99.90
2022-08-17T06:24:42.119Z,99.90
2022-08-17T06:27:25.653Z,99.90
2022-08-17T06:30:16.020Z,99.90
2022-08-17T06:32:46.224Z,99.90
2022-08-17T06:35:18.582Z,99.90
2022-08-17T06:38:02.310Z,99.90
2022-08-17T06:40:45.709Z,99.90
2022-08-17T06:43:34.243Z,99.90
2022-08-17T06:46:13.226Z,99.90
2022-08-17T06:48:43.587Z,99.90
2022-08-17T06:51:17.199Z,99.90
2022-08-17T06:53:45.398Z,99.90
2022-08-17T06:56:19.945Z,99.90
2022-08-17T06:58:48.475Z,99.90
2022-08-17T07:01:19.299Z,99.90
2022-08-17T07:03:54.844Z,99.90
2022-08-17T07:06:26.775Z,99.90
2022-08-17T07:08:57.944Z,99.90
2022-08-17T07:11:34.082Z,99.90
2022-08-17T07:14:36.674Z,99.90
2022-08-17T07:17:15.614Z,99.90
2022-08-17T07:19:45.792Z,99.90
2022-08-17T07:22:53.525Z,99.90
2022-08-17T07:25:28.695Z,99.90
2022-08-17T07:27:59.879Z,99.90
2022-08-17T07:30:49.377Z,99.90
2022-08-17T07:33:25.853Z,99.90
2022-08-17T07:35:54.023Z,99.90
2022-08-17T07:38:25.967Z,99.90
2022-08-17T07:40:59.171Z,99.90
2022-08-17T07:43:31.283Z,99.90
2022-08-17T07:46:34.465Z,99.90
2022-08-17T07:49:03.552Z,99.90
2022-08-17T07:51:41.400Z,99.90
2022-08-17T07:54:22.667Z,99.90
2022-08-17T07:57:03.497Z,99.90
2022-08-17T07:59:34.047Z,99.90
2022-08-17T08:02:17.178Z,99.90
2022-08-17T08:05:01.118Z,99.90
2022-08-17T08:08:00.426Z,99.90
2022-08-17T08:10:36.940Z,99.90
2022-08-17T08:13:21.302Z,99.90
2022-08-17T08:15:54.087Z,99.90
2022-08-17T08:18:54.689Z,99.90
2022-08-17T08:21:29.137Z,99.90
2022-08-17T08:24:22.250Z,99.90
2022-08-17T08:27:11.174Z,99.90
2022-08-17T08:29:57.045Z,99.90
2022-08-17T08:32:45.073Z,99.90
2022-08-17T08:35:35.095Z,99.90
2022-08-17T08:38:23.960Z,99.90
2022-08-17T08:41:08.455Z,99.90
2022-08-17T08:44:00.884Z,99.90
2022-08-17T08:46:44.084Z,99.90
2022-08-17T08:50:03.297Z,99.90
2022-08-17T08:53:03.775Z,99.90
2022-08-17T08:55:54.350Z,99.90
2022-08-17T08:58:41.881Z,99.90
2022-08-17T09:01:38.237Z,99.90
2022-08-17T09:04:25.545Z,99.90
2022-08-17T09:07:07.712Z,99.90
2022-08-17T09:09:45.437Z,99.90
2022-08-17T09:12:33.346Z,99.90
2022-08-17T09:15:13.353Z,99.90
2022-08-17T09:19:02.862Z,99.90
2022-08-17T09:21:04.438Z,99.90
2022-08-17T09:23:45.458Z,99.90
2022-08-17T09:26:23.027Z,99.90
2022-08-17T09:29:00.373Z,99.90
2022-08-17T09:31:49.216Z,99.90
2022-08-17T09:34:28.162Z,99.90
2022-08-17T09:37:18.753Z,99.90
2022-08-17T09:39:57.153Z,99.90
2022-08-17T09:42:36.135Z,99.90
2022-08-17T09:45:23.965Z,99.50
2022-08-17T09:48:23.065Z,98.80
2022-08-17T09:51:03.288Z,97.30
2022-08-17T09:53:38.293Z,96.60
2022-08-17T09:56:24.299Z,95.60
2022-08-17T09:59:38.398Z,94.60
2022-08-17T10:02:39.563Z,93.80
2022-08-17T10:05:37.667Z,92.80
2022-08-17T10:08:09.421Z,92.60
2022-08-17T10:11:06.043Z,92.10
2022-08-17T10:13:59.578Z,90.50
2022-08-17T10:16:38.406Z,88.40
2022-08-17T10:19:18.348Z,86.80
2022-08-17T10:22:32.617Z,86.50
2022-08-17T10:25:23.654Z,86.40
2022-08-17T10:27:57.719Z,84.80
2022-08-17T10:30:28.920Z,83.40
2022-08-17T10:33:15.587Z,86.10
2022-08-17T10:36:10.925Z,84.10
2022-08-17T10:38:51.449Z,82.70
2022-08-17T10:41:21.444Z,80.20
2022-08-17T10:44:36.679Z,79.80
2022-08-17T10:46:50.698Z,78.80
2022-08-17T10:49:17.899Z,77.50
2022-08-17T10:51:53.585Z,76.60
2022-08-17T10:54:41.258Z,75.10
2022-08-17T10:57:34.760Z,74.10
2022-08-17T11:00:23.062Z,72.50
2022-08-17T11:02:58.609Z,71.90
2022-08-17T11:06:14.206Z,71.60
2022-08-17T11:08:50.313Z,71.60
2022-08-17T11:11:38.758Z,70.80
2022-08-17T11:14:24.084Z,70.00
2022-08-17T11:17:15.565Z,69.60
2022-08-17T11:20:05.819Z,70.10
2022-08-17T11:22:34.181Z,69.20
2022-08-17T11:25:31.912Z,69.20
2022-08-17T11:28:20.085Z,68.30
2022-08-17T11:30:51.385Z,68.40
2022-08-17T11:33:34.157Z,69.10
2022-08-17T11:36:20.032Z,68.40
2022-08-17T11:39:25.178Z,67.40
2022-08-17T11:42:25.616Z,67.50
2022-08-17T11:45:03.362Z,66.40
2022-08-17T11:48:26.550Z,66.30
2022-08-17T11:51:09.790Z,66.10
2022-08-17T11:53:40.103Z,65.40
2022-08-17T11:56:29.000Z,66.00
2022-08-17T11:58:56.489Z,66.00
2022-08-17T12:01:24.357Z,64.70
2022-08-17T12:04:03.879Z,64.50
2022-08-17T12:06:33.496Z,63.50
2022-08-17T12:09:36.092Z,64.60
2022-08-17T12:12:14.673Z,65.00
2022-08-17T12:15:09.635Z,64.30
2022-08-17T12:17:40.434Z,63.60
2022-08-17T12:20:20.285Z,63.30
2022-08-17T12:23:20.668Z,62.30
2022-08-17T12:25:52.891Z,62.80
2022-08-17T12:28:28.635Z,63.30
2022-08-17T12:31:00.491Z,63.00
2022-08-17T12:33:28.950Z,62.00
2022-08-17T12:36:06.498Z,61.40
2022-08-17T12:38:36.265Z,60.40
2022-08-17T12:41:26.108Z,60.80
2022-08-17T12:44:02.453Z,60.70
2022-08-17T12:46:44.916Z,60.40
2022-08-17T12:49:22.987Z,60.00
2022-08-17T12:51:53.659Z,60.00
2022-08-17T12:54:27.339Z,61.10
2022-08-17T12:56:55.107Z,60.40
2022-08-17T12:59:29.808Z,60.20
2022-08-17T13:01:59.318Z,60.00
2022-08-17T13:04:29.657Z,60.10
2022-08-17T13:07:00.225Z,60.10
2022-08-17T13:09:36.038Z,60.40
2022-08-17T13:12:08.621Z,60.90
2022-08-17T13:14:36.331Z,61.40
2022-08-17T13:17:09.914Z,61.70
2022-08-17T13:19:49.631Z,62.70
2022-08-17T13:22:22.420Z,61.80
2022-08-17T13:24:56.230Z,62.30
2022-08-17T13:27:26.563Z,63.00
2022-08-17T13:29:59.752Z,62.70
2022-08-17T13:32:40.435Z,61.90
2022-08-17T13:35:41.006Z,62.40
2022-08-17T13:38:13.533Z,62.50
2022-08-17T13:40:50.135Z,63.00
2022-08-17T13:43:40.672Z,63.40
2022-08-17T13:46:22.597Z,63.90
2022-08-17T13:49:03.162Z,64.70
2022-08-17T13:51:43.457Z,65.20
2022-08-17T13:54:37.694Z,66.30
2022-08-17T13:57:20.852Z,65.90
2022-08-17T13:59:55.268Z,66.40
2022-08-17T14:02:27.988Z,66.00
2022-08-17T14:04:57.473Z,65.70
2022-08-17T14:07:30.285Z,63.20
2022-08-17T14:10:07.977Z,59.90
2022-08-17T14:12:37.698Z,56.90
2022-08-17T14:15:06.675Z,53.60
2022-08-17T14:17:38.638Z,51.60
2022-08-17T14:20:09.652Z,50.30
2022-08-17T14:22:40.093Z,51.00
2022-08-17T14:25:08.616Z,50.00
2022-08-17T14:27:53.229Z,49.90
2022-08-17T14:30:29.697Z,48.50
2022-08-17T14:32:58.931Z,46.80
2022-08-17T14:35:28.281Z,46.10
2022-08-17T14:37:56.306Z,46.20
2022-08-17T14:40:25.224Z,45.90
2022-08-17T14:42:55.327Z,45.20
2022-08-17T14:45:29.850Z,43.80
2022-08-17T14:48:07.857Z,44.40
2022-08-17T14:50:36.305Z,44.90
2022-08-17T14:53:08.027Z,45.90
2022-08-17T14:55:36.974Z,47.70
2022-08-17T14:58:04.252Z,49.80
2022-08-17T15:00:32.696Z,51.20
2022-08-17T15:03:01.214Z,53.40
2022-08-17T15:05:35.115Z,55.50
2022-08-17T15:08:03.879Z,55.80
2022-08-17T15:10:31.917Z,55.90
2022-08-17T15:13:00.458Z,57.10
2022-08-17T15:15:28.713Z,58.30
2022-08-17T15:17:56.272Z,58.70
2022-08-17T15:20:28.604Z,59.60
2022-08-17T15:22:57.600Z,59.60
2022-08-17T15:25:28.447Z,57.90
2022-08-17T15:27:56.196Z,57.40
2022-08-17T15:30:25.841Z,56.90
2022-08-17T15:32:55.225Z,56.70
2022-08-17T15:35:27.115Z,57.50
2022-08-17T15:37:55.065Z,57.60
2022-08-17T15:40:22.750Z,58.60
2022-08-17T15:42:51.224Z,59.30
2022-08-17T15:45:23.067Z,59.70
2022-08-17T15:47:50.909Z,59.40
2022-08-17T15:50:18.426Z,58.30
2022-08-17T15:52:50.360Z,57.20
2022-08-17T15:55:23.992Z,57.80
2022-08-17T15:57:52.426Z,57.50
2022-08-17T16:00:20.678Z,58.70
2022-08-17T16:03:45.812Z,58.90
2022-08-17T16:05:36.312Z,59.10
2022-08-17T16:08:04.623Z,59.50
2022-08-17T16:10:35.365Z,60.10
2022-08-17T16:13:04.494Z,60.10
2022-08-17T16:15:32.325Z,61.70
2022-08-17T16:17:59.815Z,62.50
2022-08-17T16:20:27.777Z,63.00
2022-08-17T16:22:57.667Z,63.10
2022-08-17T16:25:51.898Z,63.40
2022-08-17T16:28:17.876Z,63.30
2022-08-17T16:30:45.617Z,63.00
2022-08-17T16:33:13.710Z,63.20
2022-08-17T16:35:42.144Z,63.60
2022-08-17T16:38:09.691Z,64.30
2022-08-17T16:40:38.270Z,64.50
2022-08-17T16:43:12.190Z,64.70
2022-08-17T16:45:40.851Z,64.20
2022-08-17T16:48:10.090Z,64.00
2022-08-17T16:50:37.820Z,64.90
2022-08-17T16:53:11.790Z,64.60
2022-08-17T16:55:39.124Z,65.00
2022-08-17T16:58:08.868Z,65.40
2022-08-17T17:00:37.160Z,66.20
2022-08-17T17:03:26.138Z,67.70
2022-08-17T17:06:08.763Z,68.40
2022-08-17T17:08:48.976Z,69.30
2022-08-17T17:11:25.102Z,69.10
2022-08-17T17:14:01.635Z,68.40
2022-08-17T17:16:46.487Z,68.30
2022-08-17T17:19:35.131Z,67.90
2022-08-17T17:22:20.455Z,67.90
2022-08-17T17:25:15.542Z,68.10
2022-08-17T17:28:06.290Z,69.00
2022-08-17T17:30:42.785Z,69.70
2022-08-17T17:33:17.893Z,70.60
2022-08-17T17:35:56.774Z,71.30
2022-08-17T17:38:30.059Z,72.20
2022-08-17T17:41:04.597Z,72.80
2022-08-17T17:43:39.643Z,73.20
2022-08-17T17:46:38.761Z,73.70
2022-08-17T17:49:06.638Z,74.20
2022-08-17T17:52:09.453Z,75.00
2022-08-17T17:54:55.908Z,75.50
2022-08-17T17:57:51.414Z,76.10
2022-08-17T18:00:34.573Z,76.70
2022-08-17T18:03:11.627Z,77.10
2022-08-17T18:06:04.331Z,77.70
2022-08-17T18:08:53.485Z,78.30
2022-08-17T18:11:35.118Z,79.00
2022-08-17T18:14:02.481Z,79.40
2022-08-17T18:16:32.914Z,80.00
2022-08-17T18:19:01.149Z,80.50
2022-08-17T18:21:44.440Z,81.00
2022-08-17T18:24:12.939Z,81.60
2022-08-17T18:26:45.136Z,82.30
2022-08-17T18:29:36.808Z,82.70
2022-08-17T18:32:21.670Z,83.40
2022-08-17T18:34:58.511Z,84.00
2022-08-17T18:37:37.968Z,84.80
2022-08-17T18:40:17.859Z,85.30
2022-08-17T18:43:00.361Z,86.00
2022-08-17T18:45:33.482Z,86.60
2022-08-17T18:48:01.838Z,87.10
2022-08-17T18:50:39.698Z,87.90
2022-08-17T18:53:33.428Z,88.20
2022-08-17T18:56:31.384Z,89.00
2022-08-17T18:59:23.376Z,89.70
2022-08-17T19:01:59.215Z,90.10
2022-08-17T19:04:55.919Z,90.50
2022-08-17T19:07:25.700Z,90.80
2022-08-17T19:10:05.056Z,91.30
2022-08-17T19:12:39.297Z,91.40
2022-08-17T19:15:09.422Z,91.70
2022-08-17T19:17:46.944Z,92.00
2022-08-17T19:20:36.952Z,92.30
2022-08-17T19:23:13.746Z,92.60
2022-08-17T19:25:47.865Z,92.90
2022-08-17T19:28:33.852Z,93.30
2022-08-17T19:31:08.663Z,93.60
2022-08-17T19:33:37.675Z,94.10
2022-08-17T19:36:26.237Z,94.50
2022-08-17T19:39:11.335Z,94.70
2022-08-17T19:42:10.370Z,95.20
2022-08-17T19:44:37.788Z,95.60
2022-08-17T19:47:54.330Z,95.90
2022-08-17T19:50:48.532Z,96.30
2022-08-17T19:54:01.723Z,96.80
2022-08-17T19:56:55.553Z,97.10
2022-08-17T19:59:38.350Z,97.60
2022-08-17T20:02:24.521Z,98.20
2022-08-17T20:04:53.307Z,98.60
2022-08-17T20:07:28.700Z,98.90
2022-08-17T20:10:11.707Z,99.30
2022-08-17T20:12:42.923Z,99.50
2022-08-17T20:15:23.097Z,99.70
2022-08-17T20:17:51.295Z,99.90
2022-08-17T20:20:32.946Z,99.90
2022-08-17T20:23:26.310Z,99.90
2022-08-17T20:25:59.367Z,99.90
2022-08-17T20:28:30.709Z,99.90
2022-08-17T20:30:58.683Z,99.90
2022-08-17T20:33:31.691Z,99.90
2022-08-17T20:36:14.320Z,99.90
2022-08-17T20:38:45.857Z,99.90
2022-08-17T20:41:16.934Z,99.90
2022-08-17T20:44:05.619Z,99.90
2022-08-17T20:46:38.893Z,99.90
2022-08-17T20:49:08.960Z,99.90
2022-08-17T20:52:00.912Z,99.90
2022-08-17T20:54:46.222Z,99.90
2022-08-17T20:57:34.425Z,99.90
2022-08-17T21:00:32.500Z,99.90
2022-08-17T21:03:24.493Z,99.90
2022-08-17T21:06:00.824Z,99.90
2022-08-17T21:08:32.341Z,99.90
2022-08-17T21:11:21.009Z,99.90
2022-08-17T21:14:28.652Z,99.90
2022-08-17T21:17:02.543Z,99.90
2022-08-17T21:20:09.792Z,99.90
2022-08-17T21:22:49.365Z,99.90
2022-08-17T21:25:19.673Z,99.90
2022-08-17T21:28:01.641Z,99.90
2022-08-17T21:30:28.863Z,99.90
2022-08-17T21:33:18.724Z,99.90
2022-08-17T21:35:58.714Z,99.90
2022-08-17T21:38:37.352Z,99.90
2022-08-17T21:41:04.939Z,99.90
2022-08-17T21:43:35.628Z,99.90
2022-08-17T21:46:10.739Z,99.90
2022-08-17T21:48:48.237Z,99.90
2022-08-17T21:51:26.426Z,99.90
2022-08-17T21:53:57.301Z,99.90
2022-08-17T21:56:36.458Z,99.90
2022-08-17T21:59:20.192Z,99.90
2022-08-17T22:01:57.713Z,99.90
2022-08-17T22:04:37.683Z,99.90
2022-08-17T22:07:11.324Z,99.90
2022-08-17T22:09:48.125Z,99.90
2022-08-17T22:12:22.240Z,99.90
2022-08-17T22:15:02.485Z,99.90
2022-08-17T22:17:35.689Z,99.90
2022-08-17T22:20:14.357Z,99.90
2022-08-17T22:23:12.378Z,99.90
2022-08-17T22:26:12.532Z,99.90
2022-08-17T22:28:54.775Z,99.90
2022-08-17T22:31:28.496Z,99.90
2022-08-17T22:34:01.605Z,99.90
2022-08-17T22:36:35.909Z,99.90
2022-08-17T22:39:09.377Z,99.90
2022-08-17T22:41:42.941Z,99.90
2022-08-17T22:44:21.178Z,99.90
2022-08-17T22:46:58.837Z,99.90
2022-08-17T22:49:54.272Z,99.90
2022-08-17T22:53:01.586Z,99.90
2022-08-17T22:55:50.488Z,99.90
2022-08-17T22:58:43.058Z,99.90
2022-08-17T23:01:32.504Z,99.90
2022-08-17T23:04:04.741Z,99.90
2022-08-17T23:06:36.416Z,99.90
2022-08-17T23:09:05.903Z,99.90
2022-08-17T23:11:48.634Z,99.90
2022-08-17T23:14:20.005Z,99.90
2022-08-17T23:16:50.306Z,99.90
2022-08-17T23:19:21.099Z,99.90
2022-08-17T23:21:50.583Z,99.90
2022-08-17T23:24:23.557Z,99.90
2022-08-17T23:26:51.060Z,99.90
2022-08-17T23:29:20.716Z,99.90
2022-08-17T23:31:49.396Z,99.90
2022-08-17T23:34:18.597Z,99.90
2022-08-17T23:36:53.320Z,99.90
2022-08-17T23:39:24.552Z,99.90
2022-08-17T23:42:00.284Z,99.90
2022-08-17T23:44:29.060Z,99.90
2022-08-17T23:46:57.134Z,99.90
2022-08-17T23:49:25.291Z,99.90
2022-08-17T23:51:55.863Z,99.90
2022-08-17T23:54:25.245Z,99.90
2022-08-17T23:56:53.103Z,99.90
2022-08-17T23:59:22.693Z,99.90
